sensor_id;sensor_type;location;lat;lon;timestamp;P1;durP1;ratioP1;P2;durP2;ratioP2
66256;SDS011;53049;43.446;3.698;2024-01-16T00:02:11;12.40;;;7.32;;
66256;SDS011;53049;43.446;3.698;2024-01-16T00:04:37;13.07;;;7.45;;
66256;SDS011;53049;43.446;3.698;2024-01-16T00:07:03;9.80;;;6.03;;
66256;SDS011;53049;43.446;3.698;2024-01-16T00:09:29;8.90;;;5.28;;
66256;SDS011;53049;43.446;3.698;2024-01-16T00:11:58;8.02;;;4.85;;
66256;SDS011;53049;43.446;3.698;2024-01-16T00:14:25;9.60;;;5.13;;
66256;SDS011;53049;43.446;3.698;2024-01-16T00:16:50;8.95;;;4.60;;
66256;SDS011;53049;43.446;3.698;2024-01-16T00:19:16;8.88;;;5.00;;
66256;SDS011;53049;43.446;3.698;2024-01-16T00:21:42;8.63;;;4.55;;
66256;SDS011;53049;43.446;3.698;2024-01-16T00:24:11;6.43;;;4.35;;
66256;SDS011;53049;43.446;3.698;2024-01-16T00:26:37;7.20;;;4.30;;
66256;SDS011;53049;43.446;3.698;2024-01-16T00:29:03;7.43;;;4.55;;
66256;SDS011;53049;43.446;3.698;2024-01-16T00:31:28;7.97;;;4.75;;
66256;SDS011;53049;43.446;3.698;2024-01-16T00:33:54;7.80;;;4.10;;
66256;SDS011;53049;43.446;3.698;2024-01-16T00:36:20;8.85;;;4.25;;
66256;SDS011;53049;43.446;3.698;2024-01-16T00:38:45;7.22;;;4.20;;
66256;SDS011;53049;43.446;3.698;2024-01-16T00:41:14;7.93;;;5.00;;
66256;SDS011;53049;43.446;3.698;2024-01-16T00:43:41;9.02;;;4.80;;
66256;SDS011;53049;43.446;3.698;2024-01-16T00:46:10;6.70;;;3.95;;
66256;SDS011;53049;43.446;3.698;2024-01-16T00:48:36;7.05;;;4.15;;
66256;SDS011;53049;43.446;3.698;2024-01-16T00:51:01;7.10;;;4.22;;
66256;SDS011;53049;43.446;3.698;2024-01-16T00:53:27;6.90;;;4.15;;
66256;SDS011;53049;43.446;3.698;2024-01-16T00:55:53;7.70;;;4.35;;
66256;SDS011;53049;43.446;3.698;2024-01-16T00:58:19;7.88;;;4.28;;
66256;SDS011;53049;43.446;3.698;2024-01-16T01:00:46;6.85;;;4.35;;
66256;SDS011;53049;43.446;3.698;2024-01-16T01:03:12;13.27;;;4.60;;
66256;SDS011;53049;43.446;3.698;2024-01-16T01:05:38;7.30;;;4.28;;
66256;SDS011;53049;43.446;3.698;2024-01-16T01:08:03;8.80;;;4.45;;
66256;SDS011;53049;43.446;3.698;2024-01-16T01:10:29;7.20;;;4.30;;
66256;SDS011;53049;43.446;3.698;2024-01-16T01:12:55;6.55;;;3.72;;
66256;SDS011;53049;43.446;3.698;2024-01-16T01:15:21;7.80;;;4.03;;
66256;SDS011;53049;43.446;3.698;2024-01-16T01:17:50;5.97;;;3.83;;
66256;SDS011;53049;43.446;3.698;2024-01-16T01:20:16;6.07;;;4.22;;
66256;SDS011;53049;43.446;3.698;2024-01-16T01:22:44;6.65;;;3.92;;
66256;SDS011;53049;43.446;3.698;2024-01-16T01:25:10;5.97;;;3.72;;
66256;SDS011;53049;43.446;3.698;2024-01-16T01:27:36;11.65;;;5.82;;
66256;SDS011;53049;43.446;3.698;2024-01-16T01:30:02;9.40;;;5.45;;
66256;SDS011;53049;43.446;3.698;2024-01-16T01:32:29;11.70;;;5.88;;
66256;SDS011;53049;43.446;3.698;2024-01-16T01:34:54;10.88;;;6.15;;
66256;SDS011;53049;43.446;3.698;2024-01-16T01:37:20;10.70;;;5.97;;
66256;SDS011;53049;43.446;3.698;2024-01-16T01:39:46;11.82;;;6.20;;
66256;SDS011;53049;43.446;3.698;2024-01-16T01:42:11;10.70;;;5.90;;
66256;SDS011;53049;43.446;3.698;2024-01-16T01:44:37;12.52;;;6.45;;
66256;SDS011;53049;43.446;3.698;2024-01-16T01:47:03;9.45;;;5.80;;
66256;SDS011;53049;43.446;3.698;2024-01-16T01:49:30;10.98;;;5.90;;
66256;SDS011;53049;43.446;3.698;2024-01-16T01:51:57;9.90;;;5.30;;
66256;SDS011;53049;43.446;3.698;2024-01-16T01:54:23;10.93;;;5.80;;
66256;SDS011;53049;43.446;3.698;2024-01-16T01:56:51;9.88;;;5.53;;
66256;SDS011;53049;43.446;3.698;2024-01-16T01:59:17;9.55;;;4.93;;
66256;SDS011;53049;43.446;3.698;2024-01-16T02:01:45;8.98;;;4.85;;
66256;SDS011;53049;43.446;3.698;2024-01-16T02:04:15;8.23;;;4.50;;
66256;SDS011;53049;43.446;3.698;2024-01-16T02:06:45;7.13;;;4.30;;
66256;SDS011;53049;43.446;3.698;2024-01-16T02:09:11;7.85;;;4.28;;
66256;SDS011;53049;43.446;3.698;2024-01-16T02:11:41;8.10;;;4.70;;
66256;SDS011;53049;43.446;3.698;2024-01-16T02:14:08;8.48;;;4.85;;
66256;SDS011;53049;43.446;3.698;2024-01-16T02:16:38;6.72;;;4.55;;
66256;SDS011;53049;43.446;3.698;2024-01-16T02:19:06;7.55;;;5.07;;
66256;SDS011;53049;43.446;3.698;2024-01-16T02:21:44;8.45;;;5.15;;
66256;SDS011;53049;43.446;3.698;2024-01-16T02:24:15;7.97;;;5.05;;
66256;SDS011;53049;43.446;3.698;2024-01-16T02:26:42;7.85;;;4.60;;
66256;SDS011;53049;43.446;3.698;2024-01-16T02:29:07;8.63;;;5.20;;
66256;SDS011;53049;43.446;3.698;2024-01-16T02:31:34;8.45;;;5.28;;
66256;SDS011;53049;43.446;3.698;2024-01-16T02:34:00;8.05;;;4.95;;
66256;SDS011;53049;43.446;3.698;2024-01-16T02:36:26;8.93;;;5.10;;
66256;SDS011;53049;43.446;3.698;2024-01-16T02:38:54;7.47;;;5.00;;
66256;SDS011;53049;43.446;3.698;2024-01-16T02:41:20;7.93;;;4.80;;
66256;SDS011;53049;43.446;3.698;2024-01-16T02:43:45;8.07;;;5.25;;
66256;SDS011;53049;43.446;3.698;2024-01-16T02:46:11;8.43;;;5.00;;
66256;SDS011;53049;43.446;3.698;2024-01-16T02:48:37;8.50;;;5.18;;
66256;SDS011;53049;43.446;3.698;2024-01-16T02:51:03;10.10;;;5.45;;
66256;SDS011;53049;43.446;3.698;2024-01-16T02:53:30;8.15;;;5.35;;
66256;SDS011;53049;43.446;3.698;2024-01-16T02:55:56;7.18;;;5.10;;
66256;SDS011;53049;43.446;3.698;2024-01-16T02:58:28;7.75;;;5.18;;
66256;SDS011;53049;43.446;3.698;2024-01-16T03:00:54;8.07;;;5.10;;
66256;SDS011;53049;43.446;3.698;2024-01-16T03:03:20;7.85;;;5.30;;
66256;SDS011;53049;43.446;3.698;2024-01-16T03:05:47;8.55;;;5.10;;
66256;SDS011;53049;43.446;3.698;2024-01-16T03:08:13;7.90;;;5.07;;
66256;SDS011;53049;43.446;3.698;2024-01-16T03:10:38;6.63;;;4.70;;
66256;SDS011;53049;43.446;3.698;2024-01-16T03:13:04;7.95;;;5.43;;
66256;SDS011;53049;43.446;3.698;2024-01-16T03:15:30;7.97;;;5.13;;
66256;SDS011;53049;43.446;3.698;2024-01-16T03:17:56;7.85;;;4.75;;
66256;SDS011;53049;43.446;3.698;2024-01-16T03:20:23;8.00;;;5.10;;
66256;SDS011;53049;43.446;3.698;2024-01-16T03:22:48;9.57;;;5.25;;
66256;SDS011;53049;43.446;3.698;2024-01-16T03:25:15;7.68;;;4.90;;
66256;SDS011;53049;43.446;3.698;2024-01-16T03:27:41;6.80;;;4.82;;
66256;SDS011;53049;43.446;3.698;2024-01-16T03:30:07;8.00;;;5.30;;
66256;SDS011;53049;43.446;3.698;2024-01-16T03:32:34;7.18;;;4.63;;
66256;SDS011;53049;43.446;3.698;2024-01-16T03:35:00;7.90;;;4.90;;
66256;SDS011;53049;43.446;3.698;2024-01-16T03:37:26;7.57;;;4.90;;
66256;SDS011;53049;43.446;3.698;2024-01-16T03:39:52;7.90;;;5.47;;
66256;SDS011;53049;43.446;3.698;2024-01-16T03:42:19;7.35;;;5.10;;
66256;SDS011;53049;43.446;3.698;2024-01-16T03:44:45;8.73;;;5.30;;
66256;SDS011;53049;43.446;3.698;2024-01-16T03:47:11;8.07;;;5.65;;
66256;SDS011;53049;43.446;3.698;2024-01-16T03:49:37;9.60;;;6.28;;
66256;SDS011;53049;43.446;3.698;2024-01-16T03:52:03;8.20;;;5.30;;
66256;SDS011;53049;43.446;3.698;2024-01-16T03:54:29;7.50;;;4.85;;
66256;SDS011;53049;43.446;3.698;2024-01-16T03:56:55;8.73;;;5.28;;
66256;SDS011;53049;43.446;3.698;2024-01-16T03:59:21;7.93;;;5.20;;
66256;SDS011;53049;43.446;3.698;2024-01-16T04:01:47;7.22;;;4.80;;
66256;SDS011;53049;43.446;3.698;2024-01-16T04:04:14;9.32;;;5.68;;
66256;SDS011;53049;43.446;3.698;2024-01-16T04:06:40;7.63;;;5.20;;
66256;SDS011;53049;43.446;3.698;2024-01-16T04:09:06;8.73;;;5.68;;
66256;SDS011;53049;43.446;3.698;2024-01-16T04:11:33;11.68;;;6.25;;
66256;SDS011;53049;43.446;3.698;2024-01-16T04:13:59;9.57;;;5.78;;
66256;SDS011;53049;43.446;3.698;2024-01-16T04:16:25;7.63;;;5.18;;
66256;SDS011;53049;43.446;3.698;2024-01-16T04:18:50;6.95;;;4.90;;
66256;SDS011;53049;43.446;3.698;2024-01-16T04:21:16;7.25;;;5.22;;
66256;SDS011;53049;43.446;3.698;2024-01-16T04:23:43;8.15;;;5.18;;
66256;SDS011;53049;43.446;3.698;2024-01-16T04:26:09;9.32;;;5.97;;
66256;SDS011;53049;43.446;3.698;2024-01-16T04:28:35;10.35;;;6.13;;
66256;SDS011;53049;43.446;3.698;2024-01-16T04:31:02;8.40;;;5.90;;
66256;SDS011;53049;43.446;3.698;2024-01-16T04:33:28;8.02;;;5.70;;
66256;SDS011;53049;43.446;3.698;2024-01-16T04:35:55;8.77;;;6.30;;
66256;SDS011;53049;43.446;3.698;2024-01-16T04:38:21;8.30;;;5.75;;
66256;SDS011;53049;43.446;3.698;2024-01-16T04:40:46;10.63;;;6.20;;
66256;SDS011;53049;43.446;3.698;2024-01-16T04:43:12;7.22;;;5.13;;
66256;SDS011;53049;43.446;3.698;2024-01-16T04:45:38;7.68;;;5.55;;
66256;SDS011;53049;43.446;3.698;2024-01-16T04:48:03;8.05;;;5.63;;
66256;SDS011;53049;43.446;3.698;2024-01-16T04:50:29;9.10;;;5.97;;
66256;SDS011;53049;43.446;3.698;2024-01-16T04:52:58;8.57;;;5.57;;
66256;SDS011;53049;43.446;3.698;2024-01-16T04:55:27;8.85;;;6.07;;
66256;SDS011;53049;43.446;3.698;2024-01-16T04:57:54;9.48;;;5.40;;
66256;SDS011;53049;43.446;3.698;2024-01-16T05:00:19;8.85;;;5.93;;
66256;SDS011;53049;43.446;3.698;2024-01-16T05:02:45;8.20;;;6.05;;
66256;SDS011;53049;43.446;3.698;2024-01-16T05:05:12;8.00;;;5.82;;
66256;SDS011;53049;43.446;3.698;2024-01-16T05:07:38;7.85;;;5.50;;
66256;SDS011;53049;43.446;3.698;2024-01-16T05:10:04;8.57;;;6.03;;
66256;SDS011;53049;43.446;3.698;2024-01-16T05:12:31;9.55;;;6.13;;
66256;SDS011;53049;43.446;3.698;2024-01-16T05:14:57;8.82;;;5.85;;
66256;SDS011;53049;43.446;3.698;2024-01-16T05:17:23;8.00;;;5.53;;
66256;SDS011;53049;43.446;3.698;2024-01-16T05:19:49;9.52;;;6.03;;
66256;SDS011;53049;43.446;3.698;2024-01-16T05:22:14;10.60;;;6.60;;
66256;SDS011;53049;43.446;3.698;2024-01-16T05:24:40;8.25;;;5.95;;
66256;SDS011;53049;43.446;3.698;2024-01-16T05:27:06;9.27;;;6.20;;
66256;SDS011;53049;43.446;3.698;2024-01-16T05:29:32;9.88;;;6.00;;
66256;SDS011;53049;43.446;3.698;2024-01-16T05:31:57;9.50;;;6.47;;
66256;SDS011;53049;43.446;3.698;2024-01-16T05:34:23;8.93;;;5.95;;
66256;SDS011;53049;43.446;3.698;2024-01-16T05:36:49;8.60;;;6.10;;
66256;SDS011;53049;43.446;3.698;2024-01-16T05:39:15;10.43;;;6.38;;
66256;SDS011;53049;43.446;3.698;2024-01-16T05:41:42;8.68;;;5.95;;
66256;SDS011;53049;43.446;3.698;2024-01-16T05:44:08;8.05;;;5.93;;
66256;SDS011;53049;43.446;3.698;2024-01-16T05:46:33;8.60;;;6.15;;
66256;SDS011;53049;43.446;3.698;2024-01-16T05:48:59;10.23;;;6.03;;
66256;SDS011;53049;43.446;3.698;2024-01-16T05:51:27;9.63;;;6.72;;
66256;SDS011;53049;43.446;3.698;2024-01-16T05:53:54;9.93;;;6.57;;
66256;SDS011;53049;43.446;3.698;2024-01-16T05:56:19;8.93;;;6.35;;
66256;SDS011;53049;43.446;3.698;2024-01-16T05:58:45;9.85;;;7.05;;
66256;SDS011;53049;43.446;3.698;2024-01-16T06:01:11;10.10;;;6.85;;
66256;SDS011;53049;43.446;3.698;2024-01-16T06:03:40;11.38;;;7.30;;
66256;SDS011;53049;43.446;3.698;2024-01-16T06:06:06;10.60;;;7.07;;
66256;SDS011;53049;43.446;3.698;2024-01-16T06:08:32;10.10;;;7.35;;
66256;SDS011;53049;43.446;3.698;2024-01-16T06:10:58;9.75;;;6.68;;
66256;SDS011;53049;43.446;3.698;2024-01-16T06:13:24;9.63;;;6.85;;
66256;SDS011;53049;43.446;3.698;2024-01-16T06:15:50;9.88;;;7.72;;
66256;SDS011;53049;43.446;3.698;2024-01-16T06:18:16;10.07;;;7.32;;
66256;SDS011;53049;43.446;3.698;2024-01-16T06:20:41;10.35;;;7.18;;
66256;SDS011;53049;43.446;3.698;2024-01-16T06:23:07;9.10;;;6.63;;
66256;SDS011;53049;43.446;3.698;2024-01-16T06:25:33;9.55;;;6.40;;
66256;SDS011;53049;43.446;3.698;2024-01-16T06:27:58;8.45;;;5.95;;
66256;SDS011;53049;43.446;3.698;2024-01-16T06:30:24;9.23;;;6.30;;
66256;SDS011;53049;43.446;3.698;2024-01-16T06:32:49;12.05;;;7.38;;
66256;SDS011;53049;43.446;3.698;2024-01-16T06:35:16;10.18;;;7.45;;
66256;SDS011;53049;43.446;3.698;2024-01-16T06:37:42;9.40;;;6.18;;
66256;SDS011;53049;43.446;3.698;2024-01-16T06:40:08;10.27;;;7.10;;
66256;SDS011;53049;43.446;3.698;2024-01-16T06:42:35;8.75;;;6.22;;
66256;SDS011;53049;43.446;3.698;2024-01-16T06:45:04;9.48;;;6.38;;
66256;SDS011;53049;43.446;3.698;2024-01-16T06:47:30;10.43;;;6.70;;
66256;SDS011;53049;43.446;3.698;2024-01-16T06:49:56;9.75;;;6.63;;
66256;SDS011;53049;43.446;3.698;2024-01-16T06:52:22;10.63;;;6.70;;
66256;SDS011;53049;43.446;3.698;2024-01-16T06:54:47;10.68;;;7.85;;
66256;SDS011;53049;43.446;3.698;2024-01-16T06:57:13;10.32;;;7.38;;
66256;SDS011;53049;43.446;3.698;2024-01-16T06:59:39;11.15;;;8.10;;
66256;SDS011;53049;43.446;3.698;2024-01-16T07:02:05;11.27;;;8.55;;
66256;SDS011;53049;43.446;3.698;2024-01-16T07:04:31;11.05;;;7.85;;
66256;SDS011;53049;43.446;3.698;2024-01-16T07:06:57;11.57;;;8.48;;
66256;SDS011;53049;43.446;3.698;2024-01-16T07:09:24;10.55;;;7.63;;
66256;SDS011;53049;43.446;3.698;2024-01-16T07:11:52;11.80;;;8.52;;
66256;SDS011;53049;43.446;3.698;2024-01-16T07:14:18;11.88;;;8.45;;
66256;SDS011;53049;43.446;3.698;2024-01-16T07:16:44;9.93;;;7.50;;
66256;SDS011;53049;43.446;3.698;2024-01-16T07:19:10;11.05;;;7.93;;
66256;SDS011;53049;43.446;3.698;2024-01-16T07:21:37;9.57;;;6.75;;
66256;SDS011;53049;43.446;3.698;2024-01-16T07:24:03;10.00;;;7.43;;
66256;SDS011;53049;43.446;3.698;2024-01-16T07:26:28;9.60;;;6.88;;
66256;SDS011;53049;43.446;3.698;2024-01-16T07:28:54;11.85;;;7.32;;
66256;SDS011;53049;43.446;3.698;2024-01-16T07:31:20;11.32;;;7.90;;
66256;SDS011;53049;43.446;3.698;2024-01-16T07:33:46;10.45;;;8.35;;
66256;SDS011;53049;43.446;3.698;2024-01-16T07:36:12;10.25;;;7.38;;
66256;SDS011;53049;43.446;3.698;2024-01-16T07:38:38;10.75;;;7.60;;
66256;SDS011;53049;43.446;3.698;2024-01-16T07:41:04;10.23;;;8.07;;
66256;SDS011;53049;43.446;3.698;2024-01-16T07:43:30;9.63;;;7.30;;
66256;SDS011;53049;43.446;3.698;2024-01-16T07:45:56;9.52;;;7.10;;
66256;SDS011;53049;43.446;3.698;2024-01-16T07:48:22;9.80;;;7.00;;
66256;SDS011;53049;43.446;3.698;2024-01-16T07:50:48;10.18;;;6.80;;
66256;SDS011;53049;43.446;3.698;2024-01-16T07:53:14;10.50;;;7.20;;
66256;SDS011;53049;43.446;3.698;2024-01-16T07:55:40;11.75;;;7.85;;
66256;SDS011;53049;43.446;3.698;2024-01-16T07:58:12;11.65;;;7.80;;
66256;SDS011;53049;43.446;3.698;2024-01-16T08:00:38;10.25;;;7.30;;
66256;SDS011;53049;43.446;3.698;2024-01-16T08:03:06;9.68;;;6.75;;
66256;SDS011;53049;43.446;3.698;2024-01-16T08:05:33;13.07;;;8.07;;
66256;SDS011;53049;43.446;3.698;2024-01-16T08:07:58;12.00;;;6.90;;
66256;SDS011;53049;43.446;3.698;2024-01-16T08:10:24;11.07;;;7.10;;
66256;SDS011;53049;43.446;3.698;2024-01-16T08:12:50;9.88;;;7.18;;
66256;SDS011;53049;43.446;3.698;2024-01-16T08:15:16;9.82;;;7.18;;
66256;SDS011;53049;43.446;3.698;2024-01-16T08:17:41;12.82;;;8.05;;
66256;SDS011;53049;43.446;3.698;2024-01-16T08:20:07;14.07;;;8.60;;
66256;SDS011;53049;43.446;3.698;2024-01-16T08:22:36;14.73;;;8.25;;
66256;SDS011;53049;43.446;3.698;2024-01-16T08:25:02;10.77;;;8.18;;
66256;SDS011;53049;43.446;3.698;2024-01-16T08:27:31;11.27;;;8.05;;
66256;SDS011;53049;43.446;3.698;2024-01-16T08:29:58;13.88;;;9.18;;
66256;SDS011;53049;43.446;3.698;2024-01-16T08:32:23;14.60;;;8.60;;
66256;SDS011;53049;43.446;3.698;2024-01-16T08:34:49;14.25;;;8.88;;
66256;SDS011;53049;43.446;3.698;2024-01-16T08:37:15;15.50;;;9.60;;
66256;SDS011;53049;43.446;3.698;2024-01-16T08:39:40;10.80;;;7.82;;
66256;SDS011;53049;43.446;3.698;2024-01-16T08:42:06;11.73;;;8.20;;
66256;SDS011;53049;43.446;3.698;2024-01-16T08:44:34;14.32;;;9.95;;
66256;SDS011;53049;43.446;3.698;2024-01-16T08:47:00;11.20;;;7.68;;
66256;SDS011;53049;43.446;3.698;2024-01-16T08:49:29;11.98;;;8.23;;
66256;SDS011;53049;43.446;3.698;2024-01-16T08:51:55;11.18;;;7.72;;
66256;SDS011;53049;43.446;3.698;2024-01-16T08:54:20;13.30;;;8.95;;
66256;SDS011;53049;43.446;3.698;2024-01-16T08:56:48;12.90;;;8.23;;
66256;SDS011;53049;43.446;3.698;2024-01-16T08:59:14;10.52;;;7.88;;
66256;SDS011;53049;43.446;3.698;2024-01-16T09:01:39;10.95;;;7.85;;
66256;SDS011;53049;43.446;3.698;2024-01-16T09:04:07;14.40;;;7.70;;
66256;SDS011;53049;43.446;3.698;2024-01-16T09:06:32;14.68;;;8.80;;
66256;SDS011;53049;43.446;3.698;2024-01-16T09:08:58;12.98;;;9.00;;
66256;SDS011;53049;43.446;3.698;2024-01-16T09:11:24;13.10;;;7.55;;
66256;SDS011;53049;43.446;3.698;2024-01-16T09:13:49;12.35;;;9.23;;
66256;SDS011;53049;43.446;3.698;2024-01-16T09:16:15;17.40;;;11.52;;
66256;SDS011;53049;43.446;3.698;2024-01-16T09:18:41;14.40;;;9.85;;
66256;SDS011;53049;43.446;3.698;2024-01-16T09:21:06;15.35;;;10.10;;
66256;SDS011;53049;43.446;3.698;2024-01-16T09:23:32;13.57;;;8.38;;
66256;SDS011;53049;43.446;3.698;2024-01-16T09:25:58;14.63;;;8.95;;
66256;SDS011;53049;43.446;3.698;2024-01-16T09:28:23;12.88;;;8.82;;
66256;SDS011;53049;43.446;3.698;2024-01-16T09:30:49;14.10;;;8.55;;
66256;SDS011;53049;43.446;3.698;2024-01-16T09:33:15;12.23;;;9.10;;
66256;SDS011;53049;43.446;3.698;2024-01-16T09:35:41;12.98;;;8.20;;
66256;SDS011;53049;43.446;3.698;2024-01-16T09:38:07;13.20;;;8.35;;
66256;SDS011;53049;43.446;3.698;2024-01-16T09:40:33;12.27;;;8.18;;
66256;SDS011;53049;43.446;3.698;2024-01-16T09:43:00;13.10;;;8.63;;
66256;SDS011;53049;43.446;3.698;2024-01-16T09:45:26;12.73;;;8.07;;
66256;SDS011;53049;43.446;3.698;2024-01-16T09:47:54;11.85;;;7.75;;
66256;SDS011;53049;43.446;3.698;2024-01-16T09:50:22;12.43;;;8.00;;
66256;SDS011;53049;43.446;3.698;2024-01-16T09:52:48;16.60;;;8.88;;
66256;SDS011;53049;43.446;3.698;2024-01-16T09:55:14;12.27;;;7.90;;
66256;SDS011;53049;43.446;3.698;2024-01-16T09:57:40;11.60;;;7.80;;
66256;SDS011;53049;43.446;3.698;2024-01-16T10:00:08;15.13;;;7.70;;
66256;SDS011;53049;43.446;3.698;2024-01-16T10:02:41;15.65;;;7.55;;
66256;SDS011;53049;43.446;3.698;2024-01-16T10:05:11;11.45;;;7.15;;
66256;SDS011;53049;43.446;3.698;2024-01-16T10:07:37;11.30;;;6.63;;
66256;SDS011;53049;43.446;3.698;2024-01-16T10:10:03;11.63;;;6.60;;
66256;SDS011;53049;43.446;3.698;2024-01-16T10:12:30;11.77;;;7.05;;
66256;SDS011;53049;43.446;3.698;2024-01-16T10:14:58;9.57;;;6.82;;
66256;SDS011;53049;43.446;3.698;2024-01-16T10:20:03;9.65;;;6.85;;
66256;SDS011;53049;43.446;3.698;2024-01-16T10:22:30;12.65;;;7.70;;
66256;SDS011;53049;43.446;3.698;2024-01-16T10:29:59;10.07;;;6.68;;
66256;SDS011;53049;43.446;3.698;2024-01-16T10:32:28;13.27;;;7.30;;
66256;SDS011;53049;43.446;3.698;2024-01-16T10:37:29;12.73;;;7.25;;
66256;SDS011;53049;43.446;3.698;2024-01-16T10:39:56;12.88;;;7.82;;
66256;SDS011;53049;43.446;3.698;2024-01-16T10:42:21;15.07;;;9.38;;
66256;SDS011;53049;43.446;3.698;2024-01-16T10:44:53;14.82;;;8.40;;
66256;SDS011;53049;43.446;3.698;2024-01-16T10:47:21;14.05;;;8.30;;
66256;SDS011;53049;43.446;3.698;2024-01-16T10:49:47;14.20;;;9.27;;
66256;SDS011;53049;43.446;3.698;2024-01-16T10:52:13;13.25;;;8.63;;
66256;SDS011;53049;43.446;3.698;2024-01-16T10:54:41;12.45;;;8.90;;
66256;SDS011;53049;43.446;3.698;2024-01-16T10:57:09;13.15;;;9.38;;
66256;SDS011;53049;43.446;3.698;2024-01-16T10:59:40;13.25;;;9.40;;
66256;SDS011;53049;43.446;3.698;2024-01-16T11:02:13;13.85;;;8.77;;
66256;SDS011;53049;43.446;3.698;2024-01-16T11:04:43;12.10;;;8.55;;
66256;SDS011;53049;43.446;3.698;2024-01-16T11:07:09;13.30;;;8.40;;
66256;SDS011;53049;43.446;3.698;2024-01-16T11:09:36;12.50;;;8.52;;
66256;SDS011;53049;43.446;3.698;2024-01-16T11:12:02;12.45;;;8.27;;
66256;SDS011;53049;43.446;3.698;2024-01-16T11:14:29;12.73;;;7.55;;
66256;SDS011;53049;43.446;3.698;2024-01-16T11:16:56;16.45;;;8.20;;
66256;SDS011;53049;43.446;3.698;2024-01-16T11:19:26;11.70;;;7.80;;
66256;SDS011;53049;43.446;3.698;2024-01-16T11:21:52;10.38;;;6.45;;
66256;SDS011;53049;43.446;3.698;2024-01-16T11:24:19;11.95;;;6.25;;
66256;SDS011;53049;43.446;3.698;2024-01-16T11:26:44;8.55;;;5.93;;
66256;SDS011;53049;43.446;3.698;2024-01-16T11:31:54;15.02;;;7.50;;
66256;SDS011;53049;43.446;3.698;2024-01-16T11:37:31;13.75;;;7.95;;
66256;SDS011;53049;43.446;3.698;2024-01-16T11:42:44;14.65;;;7.78;;
66256;SDS011;53049;43.446;3.698;2024-01-16T11:45:52;16.45;;;7.93;;
66256;SDS011;53049;43.446;3.698;2024-01-16T11:48:11;10.88;;;6.82;;
66256;SDS011;53049;43.446;3.698;2024-01-16T11:50:37;10.82;;;7.53;;
66256;SDS011;53049;43.446;3.698;2024-01-16T11:53:03;11.60;;;7.78;;
66256;SDS011;53049;43.446;3.698;2024-01-16T11:55:33;13.68;;;8.05;;
66256;SDS011;53049;43.446;3.698;2024-01-16T12:00:41;13.13;;;8.15;;
66256;SDS011;53049;43.446;3.698;2024-01-16T12:03:10;13.90;;;7.78;;
66256;SDS011;53049;43.446;3.698;2024-01-16T12:05:43;11.38;;;7.45;;
66256;SDS011;53049;43.446;3.698;2024-01-16T12:08:08;13.15;;;8.25;;
66256;SDS011;53049;43.446;3.698;2024-01-16T12:10:35;11.55;;;8.02;;
66256;SDS011;53049;43.446;3.698;2024-01-16T12:13:12;15.50;;;7.95;;
66256;SDS011;53049;43.446;3.698;2024-01-16T12:15:37;12.27;;;7.70;;
66256;SDS011;53049;43.446;3.698;2024-01-16T12:18:03;12.90;;;8.02;;
66256;SDS011;53049;43.446;3.698;2024-01-16T12:20:29;11.35;;;7.40;;
66256;SDS011;53049;43.446;3.698;2024-01-16T12:25:22;12.18;;;7.45;;
66256;SDS011;53049;43.446;3.698;2024-01-16T12:30:25;10.05;;;7.20;;
66256;SDS011;53049;43.446;3.698;2024-01-16T12:32:53;13.07;;;7.18;;
66256;SDS011;53049;43.446;3.698;2024-01-16T12:35:41;12.38;;;8.68;;
66256;SDS011;53049;43.446;3.698;2024-01-16T12:38:08;14.20;;;7.75;;
66256;SDS011;53049;43.446;3.698;2024-01-16T12:40:35;12.90;;;7.63;;
66256;SDS011;53049;43.446;3.698;2024-01-16T12:43:08;12.55;;;8.30;;
66256;SDS011;53049;43.446;3.698;2024-01-16T12:45:34;14.35;;;8.07;;
66256;SDS011;53049;43.446;3.698;2024-01-16T12:48:01;13.70;;;7.80;;
66256;SDS011;53049;43.446;3.698;2024-01-16T12:50:29;11.20;;;7.35;;
66256;SDS011;53049;43.446;3.698;2024-01-16T12:53:09;14.55;;;7.50;;
66256;SDS011;53049;43.446;3.698;2024-01-16T12:55:36;11.88;;;7.75;;
66256;SDS011;53049;43.446;3.698;2024-01-16T12:58:19;11.52;;;7.32;;
66256;SDS011;53049;43.446;3.698;2024-01-16T13:00:48;12.27;;;7.40;;
66256;SDS011;53049;43.446;3.698;2024-01-16T13:03:15;11.27;;;7.30;;
66256;SDS011;53049;43.446;3.698;2024-01-16T13:05:43;10.68;;;7.07;;
66256;SDS011;53049;43.446;3.698;2024-01-16T13:08:09;11.55;;;7.30;;
66256;SDS011;53049;43.446;3.698;2024-01-16T13:10:42;10.57;;;7.75;;
66256;SDS011;53049;43.446;3.698;2024-01-16T13:13:11;11.18;;;6.60;;
66256;SDS011;53049;43.446;3.698;2024-01-16T13:15:38;10.75;;;7.18;;
66256;SDS011;53049;43.446;3.698;2024-01-16T13:18:03;11.45;;;7.65;;
66256;SDS011;53049;43.446;3.698;2024-01-16T13:20:29;10.73;;;6.43;;
66256;SDS011;53049;43.446;3.698;2024-01-16T13:22:55;10.70;;;6.35;;
66256;SDS011;53049;43.446;3.698;2024-01-16T13:25:21;8.20;;;6.03;;
66256;SDS011;53049;43.446;3.698;2024-01-16T13:27:47;10.60;;;6.15;;
66256;SDS011;53049;43.446;3.698;2024-01-16T13:30:12;8.57;;;6.35;;
66256;SDS011;53049;43.446;3.698;2024-01-16T13:32:39;9.48;;;6.28;;
66256;SDS011;53049;43.446;3.698;2024-01-16T13:35:05;9.93;;;6.47;;
66256;SDS011;53049;43.446;3.698;2024-01-16T13:37:34;13.13;;;7.22;;
66256;SDS011;53049;43.446;3.698;2024-01-16T13:40:03;12.20;;;6.55;;
66256;SDS011;53049;43.446;3.698;2024-01-16T13:42:33;10.98;;;6.85;;
66256;SDS011;53049;43.446;3.698;2024-01-16T13:45:00;10.00;;;6.45;;
66256;SDS011;53049;43.446;3.698;2024-01-16T13:47:25;10.23;;;6.57;;
66256;SDS011;53049;43.446;3.698;2024-01-16T13:49:51;9.68;;;7.18;;
66256;SDS011;53049;43.446;3.698;2024-01-16T13:52:17;13.25;;;6.88;;
66256;SDS011;53049;43.446;3.698;2024-01-16T13:54:43;10.75;;;6.90;;
66256;SDS011;53049;43.446;3.698;2024-01-16T13:57:09;12.15;;;6.28;;
66256;SDS011;53049;43.446;3.698;2024-01-16T13:59:35;9.27;;;6.50;;
66256;SDS011;53049;43.446;3.698;2024-01-16T14:02:02;10.13;;;6.15;;
66256;SDS011;53049;43.446;3.698;2024-01-16T14:04:30;12.65;;;7.00;;
66256;SDS011;53049;43.446;3.698;2024-01-16T14:06:55;9.85;;;6.65;;
66256;SDS011;53049;43.446;3.698;2024-01-16T14:09:21;10.50;;;7.00;;
66256;SDS011;53049;43.446;3.698;2024-01-16T14:11:47;10.05;;;6.47;;
66256;SDS011;53049;43.446;3.698;2024-01-16T14:14:12;9.27;;;6.45;;
66256;SDS011;53049;43.446;3.698;2024-01-16T14:16:38;10.38;;;6.50;;
66256;SDS011;53049;43.446;3.698;2024-01-16T14:19:03;10.32;;;6.43;;
66256;SDS011;53049;43.446;3.698;2024-01-16T14:21:29;12.63;;;6.15;;
66256;SDS011;53049;43.446;3.698;2024-01-16T14:23:55;9.52;;;6.70;;
66256;SDS011;53049;43.446;3.698;2024-01-16T14:26:20;11.63;;;6.72;;
66256;SDS011;53049;43.446;3.698;2024-01-16T14:28:46;10.75;;;7.00;;
66256;SDS011;53049;43.446;3.698;2024-01-16T14:31:12;10.90;;;7.43;;
66256;SDS011;53049;43.446;3.698;2024-01-16T14:33:38;11.35;;;7.55;;
66256;SDS011;53049;43.446;3.698;2024-01-16T14:36:03;17.10;;;7.68;;
66256;SDS011;53049;43.446;3.698;2024-01-16T14:38:30;11.23;;;7.20;;
66256;SDS011;53049;43.446;3.698;2024-01-16T14:40:55;13.93;;;7.28;;
66256;SDS011;53049;43.446;3.698;2024-01-16T14:43:22;10.63;;;6.68;;
66256;SDS011;53049;43.446;3.698;2024-01-16T14:45:48;10.77;;;7.00;;
66256;SDS011;53049;43.446;3.698;2024-01-16T14:48:15;10.20;;;6.43;;
66256;SDS011;53049;43.446;3.698;2024-01-16T14:50:41;13.48;;;7.28;;
66256;SDS011;53049;43.446;3.698;2024-01-16T14:53:08;13.25;;;6.88;;
66256;SDS011;53049;43.446;3.698;2024-01-16T14:55:33;11.98;;;7.38;;
66256;SDS011;53049;43.446;3.698;2024-01-16T14:57:59;10.98;;;6.72;;
66256;SDS011;53049;43.446;3.698;2024-01-16T15:00:26;10.88;;;7.53;;
66256;SDS011;53049;43.446;3.698;2024-01-16T15:02:52;11.40;;;7.07;;
66256;SDS011;53049;43.446;3.698;2024-01-16T15:05:19;9.82;;;6.32;;